Terminal Aerodrome Forecast
Issued by NWS

Home | Current Version | Previous Version | Text Only | Print | Product List | Glossary On
Versions: 1 2 3 4 5 6 7 8 9 10 11 12 13 14 15 16 17 18
000
FTUS45 KTFX 012100 AAA
TAFCTB
TAF AMD
KCTB 012135Z 0122/0218 25017G27KT P6SM SKC
     FM020200 25015KT P6SM SCT120
     FM020600 30015KT P6SM SCT080 BKN120
     FM020900 33015G20KT P6SM VCSH SCT035 BKN050
      TEMPO 0210/0213 35015G25KT 3SM -SN BR BKN020
     FM021500 28020KT P6SM SCT120=

USA.gov is the U.S. government's official web portal to all federal, state and local government web resources and services.